Neptune Antlia — S6BE — position and weather

sailwx.info

Track history (hours):
 
Tides and Currents Weather Stations Pressure Air Temp Water Temp Dewpoint Dewpoint Depression Visibility Wind Speed Wind Dir Waves Ship Positions

Neptune Antlia

Last reported at 2016-Apr-07 19:26 UTC. Time now 2016-Apr-30 15:06 UTC.
Position S 22°58' W 041°41'.
Warning: this ship's position is 22 days out of date.

Type: Cargo ship. MMSI: 563737000.

Date/timePositionNaut miles runAvg speedWind from/ knotsBaromVisibWave heightAir tempDewpointWater temp
2016-Apr-07 19:26S 22°58' W 041°41'1213.2
2016-Apr-07 18:33S 23°06' W 041°50'  
2016-Apr-04 04:15S 34°51' W 057°23'0 0.1
2016-Apr-04 03:21S 34°51' W 057°23'1 0.4
2016-Apr-04 01:32S 34°51' W 057°24'1212.1
2016-Apr-04 00:30S 34°45' W 057°37'1010.8
2016-Apr-03 23:33S 34°43' W 057°50'7 6.8
2016-Apr-03 22:33S 34°41' W 057°57'1312.7
2016-Apr-03 21:33S 34°37' W 058°12'1111.2
2016-Apr-03 20:33S 34°30' W 058°22'1111.0
2016-Apr-03 19:33S 34°20' W 058°29'  
2016-Apr-01 00:14S 33°52' W 058°25'0 0.0
2016-Mar-31 21:32S 33°52' W 058°25'  
Track history (hours):
 
Tides and Currents Weather Stations Pressure Air Temp Water Temp Dewpoint Dewpoint Depression Visibility Wind Speed Wind Dir Waves Ship Positions

Neptune Antlia

Last reported at 2016-Apr-07 19:26 UTC. Time now 2016-Apr-30 15:06 UTC.
Position S 22°58' W 041°41'.
Warning: this ship's position is 22 days out of date.

Type: Cargo ship. MMSI: 563737000.

Date/timePositionNaut miles runAvg speedWind from/ knotsBaromVisibWave heightAir tempDewpointWater temp
2016-Apr-07 19:26S 22°58' W 041°41'1213.2
2016-Apr-07 18:33S 23°06' W 041°50'  
2016-Apr-04 04:15S 34°51' W 057°23'0 0.1
2016-Apr-04 03:21S 34°51' W 057°23'1 0.4
2016-Apr-04 01:32S 34°51' W 057°24'1212.1
2016-Apr-04 00:30S 34°45' W 057°37'1010.8
2016-Apr-03 23:33S 34°43' W 057°50'7 6.8
2016-Apr-03 22:33S 34°41' W 057°57'1312.7
2016-Apr-03 21:33S 34°37' W 058°12'1111.2
2016-Apr-03 20:33S 34°30' W 058°22'1111.0
2016-Apr-03 19:33S 34°20' W 058°29'  
2016-Apr-01 00:14S 33°52' W 058°25'0 0.0
2016-Mar-31 21:32S 33°52' W 058°25'  

Dump ship's entire track history